Time;durP1;ratioP1;P1;durP2;ratioP2;P2;SDS_P1;SDS_P2;PMS_P1;PMS_P2;Temp;Humidity;BMP_temperature;BMP_pressure;BME280_temperature;BME280_humidity;BME280_pressure;Samples;Min_cycle;Max_cycle;Signal;HPM_P1;HPM_P2
2021/06/27 00:00:38;;;;;;;0.10;0.10;;;18.00;86.90;;;;;;4935033;29;20111;-75
2021/06/27 00:03:05;;;;;;;0.10;0.10;;;18.00;86.50;;;;;;4952127;29;20390;-75
2021/06/27 00:05:33;;;;;;;0.10;0.10;;;18.00;87.20;;;;;;5034516;28;20028;-75
2021/06/27 00:07:59;;;;;;;0.10;0.10;;;18.10;85.70;;;;;;4951837;28;20069;-75
2021/06/27 00:10:31;;;;;;;0.10;0.10;;;18.00;87.20;;;;;;4934830;29;20027;-75
2021/06/27 00:12:57;;;;;;;0.13;0.13;;;18.00;86.30;;;;;;5034657;28;20084;-75
2021/06/27 00:15:36;;;;;;;0.10;0.10;;;17.80;85.80;;;;;;4952419;29;20446;-75
2021/06/27 00:18:04;;;;;;;0.10;0.10;;;17.80;85.80;;;;;;4934653;29;20028;-75
2021/06/27 00:20:32;;;;;;;0.10;0.10;;;17.80;86.10;;;;;;5034759;28;20126;-75
2021/06/27 00:22:58;;;;;;;0.10;0.10;;;18.00;85.10;;;;;;4934664;29;20042;-75
2021/06/27 00:25:28;;;;;;;0.10;0.10;;;18.10;84.30;;;;;;4951894;28;20037;-75
2021/06/27 00:27:55;;;;;;;0.10;0.10;;;18.20;84.10;;;;;;4918560;28;20050;-75
2021/06/27 00:30:22;;;;;;;0.80;0.47;;;18.30;83.40;;;;;;4934637;29;20077;-75
2021/06/27 00:32:49;;;;;;;1.05;0.65;;;18.10;83.90;;;;;;4951641;29;20434;-75
2021/06/27 00:35:17;;;;;;;0.10;0.10;;;17.90;85.10;;;;;;4934547;28;20085;-75
2021/06/27 00:37:43;;;;;;;0.10;0.10;;;17.60;86.30;;;;;;4951485;29;20039;-75
2021/06/27 00:40:12;;;;;;;0.10;0.10;;;17.60;86.50;;;;;;4951670;29;20035;-75
2021/06/27 00:42:39;;;;;;;0.10;0.10;;;17.50;85.90;;;;;;4951475;29;20027;-75
2021/06/27 00:45:07;;;;;;;0.10;0.10;;;17.50;87.80;;;;;;4951560;29;20031;-75
2021/06/27 00:47:36;;;;;;;0.10;0.10;;;17.80;85.80;;;;;;4951177;29;20261;-75
2021/06/27 00:50:05;;;;;;;0.10;0.10;;;17.80;86.30;;;;;;4951828;29;20031;-75
2021/06/27 00:52:31;;;;;;;0.10;0.10;;;18.10;85.10;;;;;;4951512;28;20382;-75
2021/06/27 00:54:57;;;;;;;0.10;0.10;;;18.00;84.40;;;;;;4933786;28;20027;-75
2021/06/27 00:57:22;;;;;;;0.10;0.10;;;17.80;85.30;;;;;;4950893;28;20039;-75
2021/06/27 00:59:48;;;;;;;0.10;0.10;;;17.80;85.50;;;;;;4951356;29;20204;-75
2021/06/27 01:02:14;;;;;;;0.10;0.10;;;17.70;85.70;;;;;;4951403;28;20070;-75
2021/06/27 01:04:40;;;;;;;0.10;0.10;;;17.30;86.70;;;;;;4934224;28;20050;-75
2021/06/27 01:07:06;;;;;;;0.10;0.10;;;16.80;87.90;;;;;;4951079;28;20030;-75
2021/06/27 01:09:32;;;;;;;0.10;0.10;;;16.70;89.50;;;;;;4951082;29;20036;-75
2021/06/27 01:11:59;;;;;;;0.22;0.22;;;16.30;90.30;;;;;;4951197;29;20031;-75
2021/06/27 01:14:25;;;;;;;0.10;0.10;;;16.20;91.10;;;;;;4951116;29;20042;-75
2021/06/27 01:16:51;;;;;;;0.20;0.20;;;16.20;90.80;;;;;;4933960;29;20113;-75
2021/06/27 01:19:17;;;;;;;0.20;0.20;;;16.30;91.20;;;;;;4934016;29;20027;-75
2021/06/27 01:21:43;;;;;;;0.10;0.10;;;16.20;90.90;;;;;;5033590;28;20499;-75
2021/06/27 01:24:10;;;;;;;0.10;0.10;;;16.00;91.10;;;;;;4933885;28;20032;-75
2021/06/27 01:26:36;;;;;;;0.10;0.10;;;16.00;91.00;;;;;;4933827;29;20047;-75
2021/06/27 01:29:02;;;;;;;0.10;0.10;;;16.00;91.30;;;;;;4950947;28;20078;-75
2021/06/27 01:31:29;;;;;;;0.30;0.30;;;16.10;91.30;;;;;;4950875;29;20429;-75
2021/06/27 01:33:55;;;;;;;0.20;0.20;;;16.00;91.10;;;;;;4933772;29;20095;-75
2021/06/27 01:36:22;;;;;;;0.20;0.20;;;15.70;91.60;;;;;;4950835;29;20028;-75
2021/06/27 01:38:49;;;;;;;0.10;0.10;;;15.60;91.70;;;;;;4950745;29;20455;-75
2021/06/27 01:41:16;;;;;;;0.20;0.20;;;15.60;92.30;;;;;;4950882;29;20023;-75
2021/06/27 01:43:42;;;;;;;0.20;0.20;;;15.60;92.10;;;;;;4933608;29;20028;-74
2021/06/27 01:46:07;;;;;;;0.30;0.30;;;15.60;92.00;;;;;;4933578;28;20038;-73
2021/06/27 01:48:36;;;;;;;0.10;0.10;;;15.60;92.00;;;;;;4950546;29;20055;-73
2021/06/27 01:51:04;;;;;;;0.10;0.10;;;15.50;92.50;;;;;;5033563;28;20060;-73
2021/06/27 01:53:32;;;;;;;0.10;0.10;;;15.50;92.60;;;;;;4933594;29;20456;-73
2021/06/27 01:56:09;;;;;;;0.10;0.10;;;15.60;92.50;;;;;;4933787;28;20032;-75
2021/06/27 01:58:37;;;;;;;0.10;0.10;;;15.70;92.60;;;;;;4950376;29;20028;-73
2021/06/27 02:01:11;;;;;;;0.30;0.30;;;15.80;92.20;;;;;;4949580;28;20031;-75
2021/06/27 02:03:37;;;;;;;0.20;0.20;;;16.00;92.20;;;;;;4950814;29;20484;-75
2021/06/27 02:06:04;;;;;;;0.17;0.17;;;16.10;91.70;;;;;;5033202;28;20024;-75
2021/06/27 02:08:34;;;;;;;0.10;0.10;;;16.20;91.50;;;;;;4952133;29;20031;-75
2021/06/27 02:11:02;;;;;;;0.20;0.20;;;16.20;91.40;;;;;;4953744;29;20030;-75
2021/06/27 02:13:28;;;;;;;0.15;0.15;;;16.20;91.30;;;;;;5037131;28;20034;-75
2021/06/27 02:15:55;;;;;;;0.10;0.10;;;16.30;91.40;;;;;;4936689;29;20031;-73
2021/06/27 02:18:31;;;;;;;0.10;0.10;;;16.00;91.30;;;;;;4936508;28;20035;-73
2021/06/27 02:21:06;;;;;;;0.20;0.20;;;15.90;91.20;;;;;;4953711;29;20068;-75
2021/06/27 02:23:33;;;;;;;0.10;0.10;;;15.90;91.80;;;;;;4952376;28;20046;-75
2021/06/27 02:25:59;;;;;;;0.10;0.10;;;16.00;91.30;;;;;;4920532;28;20035;-75
2021/06/27 02:28:25;;;;;;;0.10;0.10;;;16.00;91.30;;;;;;5036659;28;20508;-75
2021/06/27 02:30:52;;;;;;;0.32;0.32;;;15.90;91.10;;;;;;4953571;29;20043;-75
2021/06/27 02:33:19;;;;;;;0.17;0.17;;;15.70;91.10;;;;;;4936669;29;20203;-75
2021/06/27 02:35:45;;;;;;;0.10;0.10;;;15.60;91.70;;;;;;5036993;28;20130;-75
2021/06/27 02:38:11;;;;;;;0.20;0.20;;;15.40;91.60;;;;;;4954007;29;20027;-75
2021/06/27 02:40:38;;;;;;;0.40;0.40;;;15.20;92.10;;;;;;4953606;28;20111;-75
2021/06/27 02:43:05;;;;;;;0.10;0.10;;;15.10;92.50;;;;;;4953364;28;20065;-75
2021/06/27 02:45:31;;;;;;;0.68;0.68;;;15.10;93.00;;;;;;5036440;28;20054;-75
2021/06/27 02:47:56;;;;;;;0.20;0.20;;;15.30;92.70;;;;;;4936051;28;20027;-75
2021/06/27 02:50:23;;;;;;;0.10;0.10;;;15.40;91.90;;;;;;4953179;29;20525;-75
2021/06/27 02:52:49;;;;;;;0.28;0.28;;;15.30;92.10;;;;;;5036289;28;20023;-75
2021/06/27 02:55:14;;;;;;;0.20;0.20;;;15.20;92.20;;;;;;4953254;29;20028;-75
2021/06/27 02:57:41;;;;;;;0.10;0.10;;;15.10;92.60;;;;;;4935917;28;20031;-75
2021/06/27 03:00:10;;;;;;;0.30;0.30;;;14.90;93.10;;;;;;4953221;28;20433;-75
2021/06/27 03:02:36;;;;;;;1.33;0.30;;;15.00;93.40;;;;;;4953086;29;20437;-75
2021/06/27 03:05:03;;;;;;;0.20;0.20;;;14.90;93.50;;;;;;4952867;29;20035;-75
2021/06/27 03:07:29;;;;;;;0.30;0.30;;;14.90;93.80;;;;;;4953263;29;20107;-75
2021/06/27 03:09:55;;;;;;;0.30;0.30;;;14.90;93.60;;;;;;4953096;28;20570;-75
2021/06/27 03:12:20;;;;;;;3.35;0.40;;;15.00;93.70;;;;;;4935687;29;20031;-75
2021/06/27 03:14:46;;;;;;;0.10;0.10;;;15.10;93.40;;;;;;4952903;29;20511;-75
2021/06/27 03:17:12;;;;;;;0.20;0.20;;;15.10;93.10;;;;;;4935752;28;20038;-75
2021/06/27 03:19:38;;;;;;;0.30;0.30;;;15.20;92.90;;;;;;4951328;28;20062;-75
2021/06/27 03:22:04;;;;;;;0.10;0.10;;;15.10;93.00;;;;;;4952652;29;20032;-75
2021/06/27 03:24:29;;;;;;;0.10;0.10;;;15.00;93.50;;;;;;4935794;28;20027;-75
2021/06/27 03:26:55;;;;;;;0.20;0.20;;;15.20;93.40;;;;;;4952590;29;20027;-75
2021/06/27 03:29:21;;;;;;;0.28;0.28;;;15.30;92.80;;;;;;4952690;28;20058;-76
2021/06/27 03:31:46;;;;;;;0.20;0.20;;;15.10;92.90;;;;;;4935261;29;20023;-75
2021/06/27 03:34:12;;;;;;;0.20;0.20;;;14.90;93.60;;;;;;4952628;28;20440;-75
2021/06/27 03:36:38;;;;;;;0.20;0.20;;;14.70;94.10;;;;;;4952580;29;20027;-75
2021/06/27 03:39:10;;;;;;;0.20;0.20;;;14.70;94.60;;;;;;4952355;29;20067;-75
2021/06/27 03:41:40;;;;;;;1.33;1.23;;;14.90;94.20;;;;;;4935376;29;20415;-75
2021/06/27 03:44:07;;;;;;;0.10;0.10;;;15.00;94.20;;;;;;4951390;29;20035;-75
2021/06/27 03:46:33;;;;;;;0.10;0.10;;;15.30;94.10;;;;;;4952346;29;20023;-75
2021/06/27 03:48:59;;;;;;;0.10;0.10;;;15.60;93.10;;;;;;4952336;28;20491;-75
2021/06/27 03:51:25;;;;;;;0.10;0.10;;;15.70;93.10;;;;;;5035111;28;20027;-75
2021/06/27 03:53:51;;;;;;;0.10;0.10;;;15.90;92.50;;;;;;4951070;29;20035;-76
2021/06/27 03:56:18;;;;;;;0.40;0.40;;;16.00;91.70;;;;;;4935092;29;20387;-75
2021/06/27 03:58:45;;;;;;;0.10;0.10;;;16.00;91.60;;;;;;4934932;29;20031;-75
2021/06/27 04:01:11;;;;;;;0.10;0.10;;;16.20;91.00;;;;;;4952192;29;20039;-75
2021/06/27 04:03:37;;;;;;;0.10;0.10;;;16.30;90.80;;;;;;4934965;29;20531;-75
2021/06/27 04:06:04;;;;;;;0.10;0.10;;;16.10;90.80;;;;;;4952077;29;20032;-75
2021/06/27 04:08:31;;;;;;;0.10;0.10;;;15.90;91.10;;;;;;4951911;28;20059;-75
2021/06/27 04:10:58;;;;;;;0.10;0.10;;;15.80;91.40;;;;;;4934970;29;20051;-75
2021/06/27 04:13:28;;;;;;;0.20;0.20;;;16.00;91.20;;;;;;5034536;28;20027;-75
2021/06/27 04:15:55;;;;;;;0.10;0.10;;;16.10;90.90;;;;;;4951916;29;20027;-75
2021/06/27 04:18:21;;;;;;;0.10;0.10;;;16.20;91.10;;;;;;4934648;29;20415;-75
2021/06/27 04:20:47;;;;;;;0.10;0.10;;;16.30;90.40;;;;;;4951980;29;20491;-75
2021/06/27 04:23:14;;;;;;;0.10;0.10;;;16.40;90.50;;;;;;4951925;28;20019;-75
2021/06/27 04:25:40;;;;;;;0.20;0.20;;;16.50;90.20;;;;;;5034533;28;20027;-75
2021/06/27 04:28:07;;;;;;;0.10;0.10;;;16.60;90.40;;;;;;4951696;29;20491;-75
2021/06/27 04:30:36;;;;;;;0.17;0.17;;;16.60;90.20;;;;;;4933841;29;20029;-75
2021/06/27 04:33:04;;;;;;;0.10;0.10;;;16.70;90.60;;;;;;4951568;28;20097;-75
2021/06/27 04:35:33;;;;;;;0.10;0.10;;;16.80;90.50;;;;;;5034431;28;20509;-76
2021/06/27 04:37:58;;;;;;;0.17;0.17;;;16.80;90.40;;;;;;4951583;29;20053;-75
2021/06/27 04:40:24;;;;;;;0.40;0.40;;;17.00;90.40;;;;;;4951650;28;20027;-75
2021/06/27 04:42:50;;;;;;;0.10;0.10;;;17.00;90.50;;;;;;4951526;29;20043;-75
2021/06/27 04:45:16;;;;;;;0.10;0.10;;;16.90;90.70;;;;;;4951769;28;20475;-75
2021/06/27 04:47:42;;;;;;;0.10;0.10;;;16.90;90.70;;;;;;4951335;29;20024;-74
2021/06/27 04:50:08;;;;;;;0.57;0.57;;;16.90;90.10;;;;;;4951465;29;20031;-74
2021/06/27 04:52:35;;;;;;;0.10;0.10;;;17.00;90.40;;;;;;4951435;29;20535;-74
2021/06/27 04:55:02;;;;;;;0.10;0.10;;;17.10;90.70;;;;;;4934251;29;20031;-74
2021/06/27 04:57:28;;;;;;;0.10;0.10;;;17.20;90.40;;;;;;4934050;29;20415;-74
2021/06/27 04:59:53;;;;;;;0.20;0.20;;;17.10;90.60;;;;;;4951329;29;20081;-74
2021/06/27 05:02:19;;;;;;;0.10;0.10;;;17.10;90.80;;;;;;4934008;28;20035;-74
2021/06/27 05:04:45;;;;;;;0.10;0.10;;;16.90;91.00;;;;;;4934203;29;20033;-74
2021/06/27 05:07:11;;;;;;;0.10;0.10;;;17.00;91.50;;;;;;4949758;28;20046;-74
2021/06/27 05:09:36;;;;;;;0.10;0.10;;;17.10;91.90;;;;;;4945942;23;20478;-75
2021/06/27 05:12:03;;;;;;;0.38;0.38;;;17.20;91.60;;;;;;4945192;28;20056;-75
2021/06/27 05:14:28;;;;;;;0.10;0.10;;;17.20;92.10;;;;;;4913207;29;20036;-75
2021/06/27 05:16:54;;;;;;;0.38;0.20;;;17.40;92.40;;;;;;4913176;28;20031;-75
2021/06/27 05:19:20;;;;;;;0.10;0.10;;;17.50;92.00;;;;;;4913241;29;20498;-75
2021/06/27 05:21:45;;;;;;;0.10;0.10;;;17.70;91.50;;;;;;4913273;28;20028;-75
2021/06/27 05:24:11;;;;;;;0.20;0.20;;;17.70;91.20;;;;;;4930864;29;20028;-75
2021/06/27 05:26:37;;;;;;;0.10;0.10;;;17.70;91.30;;;;;;4914543;29;20032;-75
2021/06/27 05:29:03;;;;;;;0.20;0.20;;;17.80;91.80;;;;;;4932071;29;20027;-74
2021/06/27 05:31:32;;;;;;;0.10;0.10;;;17.80;91.60;;;;;;4931942;28;20059;-75
2021/06/27 05:33:59;;;;;;;0.10;0.10;;;18.00;91.80;;;;;;4932271;28;20020;-75
2021/06/27 05:36:25;;;;;;;0.10;0.10;;;18.10;91.30;;;;;;4930845;29;20028;-75
2021/06/27 05:38:50;;;;;;;0.10;0.10;;;18.10;92.20;;;;;;4931920;29;20032;-75
2021/06/27 05:41:16;;;;;;;0.10;0.10;;;18.10;92.10;;;;;;4915170;28;20077;-75
2021/06/27 05:43:42;;;;;;;0.10;0.10;;;18.20;91.70;;;;;;4902463;29;20023;-75
2021/06/27 05:46:08;;;;;;;0.10;0.10;;;18.30;91.90;;;;;;4935175;29;20107;-74
2021/06/27 05:48:34;;;;;;;0.10;0.10;;;18.40;91.00;;;;;;4935037;29;20391;-75
2021/06/27 05:50:59;;;;;;;0.10;0.10;;;18.50;90.80;;;;;;4918171;28;20024;-75
2021/06/27 05:53:25;;;;;;;0.10;0.10;;;18.70;90.50;;;;;;4935307;29;20020;-75
2021/06/27 05:56:08;;;;;;;0.10;0.10;;;18.70;90.40;;;;;;4918160;28;20020;-75
2021/06/27 05:58:39;;;;;;;0.10;0.10;;;18.80;90.20;;;;;;4917787;29;20103;-75
2021/06/27 06:01:07;;;;;;;0.10;0.10;;;18.80;90.10;;;;;;4935078;29;20028;-75
2021/06/27 06:03:33;;;;;;;0.10;0.10;;;18.80;90.70;;;;;;4935013;29;20024;-74
2021/06/27 06:05:59;;;;;;;0.20;0.20;;;18.70;90.40;;;;;;4935009;28;20094;-75
2021/06/27 06:08:25;;;;;;;0.10;0.10;;;18.70;91.50;;;;;;4917659;28;20031;-77
2021/06/27 06:10:51;;;;;;;0.10;0.10;;;18.80;91.90;;;;;;4918895;28;20028;-77
2021/06/27 06:13:17;;;;;;;0.10;0.10;;;19.10;91.30;;;;;;4935663;28;20020;-77
2021/06/27 06:15:43;;;;;;;0.10;0.10;;;19.20;89.90;;;;;;4918963;29;20028;-77
2021/06/27 06:18:09;;;;;;;0.32;0.32;;;19.30;88.80;;;;;;4918185;28;20031;-77
2021/06/27 06:20:35;;;;;;;0.10;0.10;;;19.50;88.90;;;;;;4910289;28;20023;-77
2021/06/27 06:23:00;;;;;;;0.10;0.10;;;19.60;88.60;;;;;;4937514;28;20035;-77
2021/06/27 06:25:26;;;;;;;0.10;0.10;;;19.80;87.80;;;;;;4921565;28;20438;-77
2021/06/27 06:27:52;;;;;;;0.20;0.20;;;20.10;84.60;;;;;;4954840;29;20038;-78
2021/06/27 06:30:18;;;;;;;0.10;0.10;;;20.30;83.30;;;;;;4937904;29;20410;-78
2021/06/27 06:32:44;;;;;;;0.10;0.10;;;20.40;81.30;;;;;;4937703;29;20487;-78
2021/06/27 06:35:10;;;;;;;0.38;0.10;;;20.50;77.60;;;;;;4936812;28;20126;-77
2021/06/27 06:37:36;;;;;;;0.10;0.10;;;20.50;80.10;;;;;;4936201;28;20052;-78
2021/06/27 06:40:04;;;;;;;0.08;0.08;;;20.50;80.50;;;;;;4934525;29;20099;-79
2021/06/27 06:42:30;;;;;;;0.10;0.10;;;20.60;80.20;;;;;;4935787;28;20028;-78
2021/06/27 06:44:55;;;;;;;0.10;0.10;;;20.80;78.70;;;;;;4918729;28;20024;-79
2021/06/27 06:47:21;;;;;;;0.10;0.10;;;20.70;77.60;;;;;;4918259;29;20553;-78
2021/06/27 06:49:47;;;;;;;0.10;0.10;;;20.70;78.70;;;;;;4918820;29;20027;-78
2021/06/27 06:52:13;;;;;;;0.00;0.00;;;20.70;77.90;;;;;;4934355;29;20081;-78
2021/06/27 06:54:39;;;;;;;0.10;0.10;;;20.70;78.70;;;;;;4917806;29;20396;-78
2021/06/27 06:57:05;;;;;;;0.10;0.10;;;20.80;77.50;;;;;;4918265;29;20024;-78
2021/06/27 06:59:30;;;;;;;0.10;0.10;;;20.90;78.30;;;;;;4918322;29;20518;-78
2021/06/27 07:01:56;;;;;;;0.00;0.00;;;21.00;79.00;;;;;;4934248;29;20042;-78
2021/06/27 07:04:22;;;;;;;0.08;0.08;;;21.10;78.20;;;;;;4918419;29;20027;-78
2021/06/27 07:06:47;;;;;;;0.10;0.10;;;21.20;78.10;;;;;;4918719;28;20051;-78
2021/06/27 07:09:14;;;;;;;0.10;0.10;;;21.30;74.40;;;;;;4918405;28;20031;-78
2021/06/27 07:11:39;;;;;;;0.00;0.00;;;21.10;74.60;;;;;;4918695;29;20021;-78
2021/06/27 07:14:05;;;;;;;0.10;0.10;;;21.20;77.10;;;;;;4901711;28;20098;-78
2021/06/27 07:16:31;;;;;;;0.10;0.10;;;21.30;77.50;;;;;;4946527;28;20028;-77
2021/06/27 07:18:57;;;;;;;0.10;0.10;;;21.30;78.70;;;;;;4954529;29;20096;-78
2021/06/27 07:21:23;;;;;;;0.10;0.10;;;21.40;72.50;;;;;;4938694;29;20339;-78
2021/06/27 07:23:49;;;;;;;0.10;0.10;;;21.40;72.00;;;;;;4955298;29;20032;-78
2021/06/27 07:26:15;;;;;;;0.10;0.10;;;21.40;74.40;;;;;;4939568;28;20560;-78
2021/06/27 07:28:41;;;;;;;0.10;0.10;;;21.50;76.20;;;;;;4936367;28;20067;-78
2021/06/27 07:31:06;;;;;;;0.05;0.05;;;21.60;77.00;;;;;;4904544;28;20115;-78
2021/06/27 07:33:32;;;;;;;0.10;0.10;;;21.50;78.40;;;;;;4905392;28;20028;-81
2021/06/27 07:35:58;;;;;;;0.10;0.10;;;21.60;78.50;;;;;;4904375;28;20023;-77
2021/06/27 07:38:23;;;;;;;0.10;0.10;;;21.80;74.20;;;;;;4919182;29;20114;-77
2021/06/27 07:40:50;;;;;;;0.10;0.10;;;21.80;72.10;;;;;;4935803;29;20089;-77
2021/06/27 07:43:16;;;;;;;0.00;0.00;;;21.90;73.10;;;;;;4918603;29;20032;-78
2021/06/27 07:45:44;;;;;;;0.00;0.00;;;22.20;73.80;;;;;;4935460;28;20027;-78
2021/06/27 07:48:11;;;;;;;0.30;0.30;;;22.40;74.20;;;;;;4926427;28;20028;-77
2021/06/27 07:50:36;;;;;;;0.05;0.05;;;22.60;70.30;;;;;;4937544;29;20019;-78
2021/06/27 07:53:03;;;;;;;0.10;0.10;;;22.80;70.60;;;;;;4937453;28;20054;-78
2021/06/27 07:55:29;;;;;;;0.10;0.10;;;23.00;71.40;;;;;;4937431;28;20046;-78
2021/06/27 07:57:55;;;;;;;0.10;0.10;;;23.10;70.50;;;;;;4954548;29;20526;-78
2021/06/27 08:00:22;;;;;;;0.13;0.13;;;22.90;71.30;;;;;;4937586;28;20130;-78
2021/06/27 08:02:48;;;;;;;0.08;0.08;;;22.90;72.60;;;;;;4921710;28;20039;-78
2021/06/27 08:05:14;;;;;;;0.08;0.08;;;22.70;69.40;;;;;;4936760;28;20120;-77
2021/06/27 08:07:40;;;;;;;0.03;0.03;;;22.50;70.00;;;;;;4937341;29;20333;-78
2021/06/27 08:10:08;;;;;;;0.10;0.10;;;22.50;67.70;;;;;;4937410;28;20035;-77
2021/06/27 08:12:35;;;;;;;0.08;0.08;;;22.40;68.70;;;;;;4920900;28;20019;-77
2021/06/27 08:15:00;;;;;;;0.00;0.00;;;22.60;69.60;;;;;;4936752;29;20438;-78
2021/06/27 08:17:26;;;;;;;0.10;0.10;;;22.90;68.30;;;;;;4937443;28;20027;-78
2021/06/27 08:19:52;;;;;;;0.10;0.10;;;23.10;67.30;;;;;;4937378;28;20031;-78
2021/06/27 08:22:18;;;;;;;0.10;0.10;;;22.90;67.70;;;;;;4937231;28;20066;-77
2021/06/27 08:24:45;;;;;;;0.10;0.10;;;22.70;66.80;;;;;;4937149;28;20118;-78
2021/06/27 08:27:11;;;;;;;0.10;0.10;;;22.50;68.60;;;;;;4937152;28;20035;-78
2021/06/27 08:29:37;;;;;;;0.10;0.10;;;22.50;69.00;;;;;;4937326;28;20031;-78
2021/06/27 08:32:04;;;;;;;0.00;0.00;;;22.60;68.70;;;;;;4955030;29;20031;-78
2021/06/27 08:34:29;;;;;;;0.10;0.10;;;23.00;68.70;;;;;;4922628;28;20027;-78
2021/06/27 08:36:55;;;;;;;0.00;0.00;;;23.30;67.70;;;;;;4939265;29;20024;-78
2021/06/27 08:39:21;;;;;;;0.10;0.10;;;23.70;65.20;;;;;;4938390;28;20038;-78
2021/06/27 08:41:48;;;;;;;0.10;0.10;;;23.80;64.30;;;;;;4938562;28;20070;-78
2021/06/27 08:44:14;;;;;;;0.28;0.28;;;24.00;63.10;;;;;;5010655;28;20545;-78
2021/06/27 08:46:44;;;;;;;0.00;0.00;;;24.00;64.00;;;;;;5018983;28;20033;-77
2021/06/27 08:49:13;;;;;;;0.10;0.10;;;24.30;63.40;;;;;;5002424;28;20076;-78
2021/06/27 08:51:40;;;;;;;0.20;0.20;;;24.40;63.80;;;;;;5018346;28;20120;-77
2021/06/27 08:54:10;;;;;;;0.10;0.10;;;24.20;63.80;;;;;;5018610;28;20034;-77
2021/06/27 08:56:37;;;;;;;0.10;0.10;;;24.30;64.90;;;;;;5018853;28;20028;-78
2021/06/27 08:59:03;;;;;;;0.00;0.00;;;24.60;65.70;;;;;;5018501;28;20021;-78
2021/06/27 09:01:29;;;;;;;0.10;0.10;;;25.00;64.30;;;;;;5018996;28;20028;-78
2021/06/27 09:03:56;;;;;;;0.10;0.10;;;25.00;61.70;;;;;;5019342;28;20026;-78
2021/06/27 09:06:37;;;;;;;0.00;0.00;;;24.80;62.70;;;;;;5017871;28;20026;-78
2021/06/27 09:09:09;;;;;;;0.10;0.10;;;25.00;62.70;;;;;;5002555;28;20084;-78
2021/06/27 09:11:35;;;;;;;0.20;0.20;;;24.90;63.50;;;;;;5002434;28;20443;-78
2021/06/27 09:14:01;;;;;;;0.10;0.10;;;25.00;63.90;;;;;;5018876;28;20030;-78
2021/06/27 09:16:26;;;;;;;0.00;0.00;;;25.30;63.80;;;;;;5036065;28;20025;-78
2021/06/27 09:18:58;;;;;;;0.40;0.13;;;25.40;64.00;;;;;;5002002;28;20120;-78
2021/06/27 09:21:24;;;;;;;1.38;0.20;;;25.50;62.10;;;;;;5019182;28;20560;-78
2021/06/27 09:23:50;;;;;;;0.38;0.38;;;25.60;63.30;;;;;;5004370;28;20045;-77
2021/06/27 09:26:31;;;;;;;0.00;0.00;;;25.90;62.00;;;;;;5032811;28;20603;-77
2021/06/27 09:28:58;;;;;;;0.00;0.00;;;26.10;59.70;;;;;;5033271;28;20022;-78
2021/06/27 09:31:42;;;;;;;0.00;0.00;;;26.20;60.40;;;;;;5033108;28;20021;-77
2021/06/27 09:34:13;;;;;;;0.00;0.00;;;26.40;60.00;;;;;;5015305;28;20112;-77
2021/06/27 09:36:53;;;;;;;0.05;0.05;;;26.70;60.10;;;;;;4999122;28;20030;-77
2021/06/27 09:39:19;;;;;;;0.00;0.00;;;26.80;59.10;;;;;;5015508;28;20072;-77
2021/06/27 09:41:47;;;;;;;0.00;0.00;;;26.80;60.90;;;;;;4998568;28;20029;-77
2021/06/27 09:44:14;;;;;;;0.00;0.00;;;27.00;58.00;;;;;;5015226;28;20100;-78
2021/06/27 09:46:46;;;;;;;0.05;0.05;;;27.20;57.80;;;;;;5015166;28;20030;-77
2021/06/27 09:49:24;;;;;;;0.00;0.00;;;27.50;57.80;;;;;;5032951;28;20087;-77
2021/06/27 09:51:56;;;;;;;0.00;0.00;;;27.70;57.50;;;;;;5015180;28;20022;-77
2021/06/27 09:54:26;;;;;;;0.00;0.00;;;27.80;57.80;;;;;;5031937;28;20128;-77
2021/06/27 09:56:53;;;;;;;0.98;0.73;;;27.80;55.10;;;;;;4998598;28;20393;-73
2021/06/27 09:59:21;;;;;;;0.20;0.20;;;27.50;55.10;;;;;;5031341;28;20021;-73
2021/06/27 10:01:47;;;;;;;0.00;0.00;;;27.50;55.70;;;;;;5031530;28;20032;-73
2021/06/27 10:04:34;;;;;;;0.40;0.40;;;27.50;55.60;;;;;;5031601;28;20096;-72
2021/06/27 10:07:05;;;;;;;0.10;0.10;;;27.70;53.80;;;;;;5031421;28;20405;-73
2021/06/27 10:09:32;;;;;;;0.20;0.03;;;27.90;52.90;;;;;;5031227;28;20038;-73
2021/06/27 10:12:19;;;;;;;0.00;0.00;;;28.00;52.20;;;;;;5031540;28;20410;-75
2021/06/27 10:14:49;;;;;;;0.10;0.10;;;28.20;50.20;;;;;;5031300;28;20478;-73
2021/06/27 10:17:16;;;;;;;0.00;0.00;;;28.20;50.50;;;;;;5031517;28;20017;-73
2021/06/27 10:19:43;;;;;;;0.10;0.10;;;28.60;51.20;;;;;;5031473;28;20420;-74
2021/06/27 10:22:09;;;;;;;0.00;0.00;;;28.90;50.00;;;;;;5031817;28;20541;-74
2021/06/27 10:24:35;;;;;;;0.15;0.13;;;28.90;50.60;;;;;;5031659;28;20113;-73
2021/06/27 10:27:01;;;;;;;0.10;0.10;;;28.80;50.90;;;;;;5031522;28;20026;-74
2021/06/27 10:29:27;;;;;;;0.00;0.00;;;28.80;49.90;;;;;;5033197;28;20017;-74
2021/06/27 10:31:55;;;;;;;0.00;0.00;;;28.90;48.80;;;;;;5034805;28;20025;-74
2021/06/27 10:34:22;;;;;;;0.00;0.00;;;28.80;49.70;;;;;;4999087;28;20464;-73
2021/06/27 10:36:51;;;;;;;0.00;0.00;;;29.10;50.10;;;;;;4934674;28;20035;-73
2021/06/27 10:39:18;;;;;;;0.10;0.10;;;29.30;49.60;;;;;;4933963;29;20038;-74
2021/06/27 10:42:00;;;;;;;0.00;0.00;;;29.30;49.70;;;;;;4917231;29;20024;-73
2021/06/27 10:44:50;;;;;;;0.00;0.00;;;29.50;49.60;;;;;;4934401;29;20387;-74
2021/06/27 10:47:33;;;;;;;0.00;0.00;;;29.50;49.70;;;;;;4933773;29;20040;-73
2021/06/27 10:50:08;;;;;;;0.00;0.00;;;29.80;50.70;;;;;;4934194;29;20138;-74
2021/06/27 10:52:56;;;;;;;0.00;0.00;;;29.90;49.40;;;;;;4934119;29;20079;-74
2021/06/27 10:55:26;;;;;;;1.45;0.20;;;30.20;50.20;;;;;;4934241;28;20081;-74
2021/06/27 10:57:57;;;;;;;0.00;0.00;;;29.80;48.80;;;;;;4933675;29;20454;-74
2021/06/27 11:00:25;;;;;;;0.00;0.00;;;29.70;50.50;;;;;;4934265;28;20585;-74
2021/06/27 11:02:51;;;;;;;0.00;0.00;;;29.80;49.00;;;;;;4934078;28;20376;-73
2021/06/27 11:05:29;;;;;;;0.00;0.00;;;30.00;46.80;;;;;;4933981;29;20506;-74
2021/06/27 11:07:56;;;;;;;0.00;0.00;;;29.90;45.80;;;;;;4933777;29;20063;-74
2021/06/27 11:10:22;;;;;;;0.20;0.20;;;30.10;46.90;;;;;;5001799;23;20449;-75
2021/06/27 11:13:02;;;;;;;0.00;0.00;;;29.90;46.40;;;;;;4952666;29;20027;-75
2021/06/27 11:15:37;;;;;;;0.00;0.00;;;29.70;46.90;;;;;;4935707;28;20466;-74
2021/06/27 11:18:04;;;;;;;0.00;0.00;;;30.00;45.90;;;;;;4935513;28;20070;-74
2021/06/27 11:20:34;;;;;;;0.10;0.10;;;30.30;46.00;;;;;;4951600;29;20023;-74
2021/06/27 11:23:00;;;;;;;0.00;0.00;;;30.10;46.80;;;;;;4952756;29;20432;-74
2021/06/27 11:25:32;;;;;;;0.20;0.20;;;30.10;46.80;;;;;;4919158;29;20249;-74
2021/06/27 11:27:58;;;;;;;0.00;0.00;;;29.90;46.60;;;;;;4935195;28;20090;-74
2021/06/27 11:30:31;;;;;;;0.00;0.00;;;29.90;47.40;;;;;;4952297;29;20027;-74
2021/06/27 11:33:18;;;;;;;0.03;0.03;;;30.20;48.20;;;;;;4950372;28;20031;-75
2021/06/27 11:36:05;;;;;;;0.00;0.00;;;30.80;48.00;;;;;;4919841;29;20026;-74
2021/06/27 11:38:45;;;;;;;0.00;0.00;;;30.60;47.10;;;;;;4933669;28;20062;-74
2021/06/27 11:41:27;;;;;;;0.20;0.20;;;30.70;48.90;;;;;;4952334;28;20062;-75
2021/06/27 11:44:08;;;;;;;0.00;0.00;;;30.30;48.00;;;;;;4951425;29;20033;-74
2021/06/27 11:46:42;;;;;;;0.00;0.00;;;29.80;50.40;;;;;;4951978;28;20031;-74
2021/06/27 11:49:13;;;;;;;0.00;0.00;;;30.10;47.50;;;;;;4952459;29;20046;-74
2021/06/27 11:51:46;;;;;;;;;;;30.30;45.50;;;;;;4935513;28;20135;-74
2021/06/27 11:54:17;;;;;;;0.85;0.38;;;30.20;44.80;;;;;;4935457;28;19949;-74
2021/06/27 11:57:00;;;;;;;0.00;0.00;;;30.20;45.60;;;;;;4934727;28;20121;-74
2021/06/27 11:59:29;;;;;;;0.00;0.00;;;30.00;46.70;;;;;;4952334;28;20035;-74
2021/06/27 12:02:07;;;;;;;0.32;0.32;;;30.00;46.30;;;;;;4935076;29;20114;-74
2021/06/27 12:04:52;;;;;;;0.80;0.10;;;29.40;47.70;;;;;;5034890;28;20027;-74
2021/06/27 12:07:41;;;;;;;0.35;0.17;;;29.20;47.80;;;;;;4951833;29;20039;-74
2021/06/27 12:10:20;;;;;;;0.60;0.50;;;29.20;49.10;;;;;;4950569;28;20118;-74
2021/06/27 12:12:48;;;;;;;0.00;0.00;;;29.50;49.50;;;;;;5018206;28;20047;-71
2021/06/27 12:15:17;;;;;;;0.10;0.10;;;29.30;49.50;;;;;;4935094;28;20023;-74
2021/06/27 12:18:04;;;;;;;0.00;0.00;;;29.10;50.00;;;;;;4951993;29;20085;-73
2021/06/27 12:20:45;;;;;;;0.00;0.00;;;29.10;50.00;;;;;;4937392;28;20039;-73
2021/06/27 12:23:14;;;;;;;0.20;0.10;;;28.80;50.30;;;;;;4934802;29;20088;-74
2021/06/27 12:25:57;;;;;;;0.00;0.00;;;28.70;51.00;;;;;;5034554;28;20106;-74
2021/06/27 12:28:37;;;;;;;0.20;0.20;;;28.50;51.10;;;;;;4951594;29;20031;-74
2021/06/27 12:31:11;;;;;;;0.00;0.00;;;28.50;52.40;;;;;;4951831;28;20491;-74
2021/06/27 12:33:41;;;;;;;0.08;0.08;;;28.60;52.60;;;;;;4934619;28;20085;-74
2021/06/27 12:36:10;;;;;;;0.10;0.10;;;28.60;52.50;;;;;;4934666;28;20027;-75
2021/06/27 12:38:37;;;;;;;0.10;0.10;;;28.70;52.10;;;;;;4934289;29;20506;-73
2021/06/27 12:41:05;;;;;;;0.00;0.00;;;28.60;51.10;;;;;;4951435;28;20047;-74
2021/06/27 12:43:33;;;;;;;0.00;0.00;;;28.60;50.40;;;;;;4951576;29;20045;-74
2021/06/27 12:46:31;;;;;;;0.00;0.00;;;28.50;51.80;;;;;;4951598;28;20501;-74
2021/06/27 12:49:00;;;;;;;0.20;0.13;;;28.60;52.90;;;;;;4938262;29;20446;-74
2021/06/27 12:51:34;;;;;;;0.30;0.30;;;28.70;52.70;;;;;;4950885;29;20023;-73
2021/06/27 12:54:02;;;;;;;0.00;0.00;;;28.70;53.00;;;;;;4951553;28;20020;-74